createdAt,value
2023-01-07T00:02:24.814Z,8.93
2023-01-07T00:07:29.927Z,8.88
2023-01-07T00:12:37.674Z,8.87
2023-01-07T00:17:44.841Z,8.89
2023-01-07T00:22:50.380Z,8.87
2023-01-07T00:27:58.733Z,8.88
2023-01-07T00:33:07.103Z,8.87
2023-01-07T00:38:12.417Z,8.92
2023-01-07T00:43:20.444Z,9.06
2023-01-07T00:48:25.708Z,9.10
2023-01-07T00:53:31.500Z,9.12
2023-01-07T00:58:39.525Z,9.11
2023-01-07T01:03:46.969Z,9.21
2023-01-07T01:08:51.966Z,9.22
2023-01-07T01:13:59.874Z,9.16
2023-01-07T01:19:04.912Z,9.20
2023-01-07T01:24:11.105Z,9.28
2023-01-07T01:29:18.746Z,9.25
2023-01-07T01:34:27.052Z,9.20
2023-01-07T01:39:32.055Z,9.29
2023-01-07T01:44:43.150Z,9.22
2023-01-07T01:50:00.981Z,9.27
2023-01-07T01:55:12.150Z,9.27
2023-01-07T02:00:20.634Z,9.21
2023-01-07T02:05:34.318Z,9.27
2023-01-07T02:10:40.553Z,9.23
2023-01-07T02:15:57.185Z,9.22
2023-01-07T02:21:18.966Z,9.22
2023-01-07T02:26:49.874Z,9.22
2023-01-07T02:32:12.347Z,9.21
2023-01-07T02:37:22.791Z,9.21
2023-01-07T02:42:35.739Z,9.19
2023-01-07T02:47:50.538Z,9.25
2023-01-07T02:52:55.872Z,9.21
2023-01-07T02:58:34.893Z,9.09
2023-01-07T03:04:01.905Z,9.19
2023-01-07T03:09:13.886Z,9.20
2023-01-07T03:14:23.260Z,9.22
2023-01-07T03:19:34.267Z,9.19
2023-01-07T03:24:41.731Z,9.22
2023-01-07T03:29:47.098Z,9.19
2023-01-07T03:34:55.249Z,9.27
2023-01-07T03:40:02.055Z,9.27
2023-01-07T03:45:11.271Z,9.11
2023-01-07T03:50:19.903Z,9.10
2023-01-07T03:55:26.076Z,9.14
2023-01-07T04:00:33.938Z,9.15
2023-01-07T04:05:54.139Z,9.19
2023-01-07T04:11:01.804Z,9.12
2023-01-07T04:16:08.284Z,9.18
2023-01-07T04:21:16.636Z,9.16
2023-01-07T04:26:23.053Z,9.09
2023-01-07T04:31:28.901Z,9.10
2023-01-07T04:36:36.524Z,8.94
2023-01-07T04:41:42.978Z,9.00
2023-01-07T04:46:48.666Z,8.91
2023-01-07T04:51:57.508Z,8.96
2023-01-07T04:57:03.241Z,8.95
2023-01-07T05:02:08.838Z,8.85
2023-01-07T05:07:17.243Z,8.83
2023-01-07T05:12:23.710Z,8.79
2023-01-07T05:17:37.584Z,8.94
2023-01-07T05:22:46.522Z,8.90
2023-01-07T05:27:51.824Z,8.75
2023-01-07T05:32:58.020Z,8.73
2023-01-07T05:38:07.486Z,8.74
2023-01-07T05:43:12.516Z,8.63
2023-01-07T05:48:18.533Z,8.60
2023-01-07T05:53:26.509Z,8.56
2023-01-07T05:58:32.029Z,8.68
2023-01-07T06:03:37.168Z,8.72
2023-01-07T06:08:44.782Z,8.81
2023-01-07T06:13:50.017Z,8.86
2023-01-07T06:18:55.008Z,8.81
2023-01-07T06:24:04.809Z,8.90
2023-01-07T06:29:10.020Z,8.84
2023-01-07T06:34:14.960Z,8.87
2023-01-07T06:39:26.453Z,8.96
2023-01-07T06:44:31.398Z,9.04
2023-01-07T06:49:36.366Z,9.05
2023-01-07T06:54:44.089Z,9.15
2023-01-07T06:59:49.312Z,9.18
2023-01-07T07:04:54.535Z,9.17
2023-01-07T07:10:04.716Z,9.23
2023-01-07T07:15:12.449Z,9.17
2023-01-07T07:20:17.651Z,9.13
2023-01-07T07:25:26.595Z,9.17
2023-01-07T07:30:45.845Z,9.05
2023-01-07T07:35:53.002Z,9.11
2023-01-07T07:41:00.758Z,9.11
2023-01-07T07:46:06.164Z,8.99
2023-01-07T07:51:11.533Z,8.66
2023-01-07T07:56:20.859Z,8.50
2023-01-07T08:01:26.009Z,8.34
2023-01-07T08:06:34.380Z,8.32
2023-01-07T08:11:42.003Z,7.81
2023-01-07T08:16:47.068Z,7.76
2023-01-07T08:21:51.990Z,7.49
2023-01-07T08:26:59.567Z,7.54
2023-01-07T08:32:04.741Z,7.61
2023-01-07T08:37:12.317Z,7.49
2023-01-07T08:42:19.856Z,7.49
2023-01-07T08:47:27.409Z,7.55
2023-01-07T08:52:32.868Z,7.59
2023-01-07T08:57:44.842Z,7.67
2023-01-07T09:02:50.122Z,7.93
2023-01-07T09:07:56.938Z,8.03
2023-01-07T09:13:04.432Z,8.24
2023-01-07T09:18:09.710Z,8.36
2023-01-07T09:23:14.684Z,8.50
2023-01-07T09:28:22.251Z,8.55
2023-01-07T09:33:27.272Z,8.74
2023-01-07T09:38:33.143Z,8.86
2023-01-07T09:44:00.533Z,8.85
2023-01-07T09:49:08.675Z,8.92
2023-01-07T09:54:26.316Z,9.07
2023-01-07T09:59:39.093Z,9.05
2023-01-07T10:04:53.631Z,9.32
2023-01-07T10:10:11.020Z,9.05
2023-01-07T10:15:41.709Z,9.08
2023-01-07T10:20:53.771Z,9.17
2023-01-07T10:26:03.250Z,9.38
2023-01-07T10:31:20.628Z,9.57
2023-01-07T10:36:29.458Z,9.63
2023-01-07T10:41:44.966Z,9.86
2023-01-07T10:47:07.109Z,9.89
2023-01-07T10:52:21.018Z,10.01
2023-01-07T10:57:28.742Z,9.95
2023-01-07T11:02:40.438Z,9.94
2023-01-07T11:07:50.495Z,10.04
2023-01-07T11:12:59.783Z,10.32
2023-01-07T11:18:14.970Z,10.41
2023-01-07T11:23:40.895Z,11.24
2023-01-07T11:28:54.991Z,11.16
2023-01-07T11:34:04.598Z,10.91
2023-01-07T11:39:14.192Z,11.77
2023-01-07T11:44:30.526Z,11.27
2023-01-07T11:49:46.847Z,11.66
2023-01-07T11:54:53.833Z,12.15
2023-01-07T12:00:17.524Z,11.81
2023-01-07T12:05:30.247Z,11.59
2023-01-07T12:10:38.283Z,11.75
2023-01-07T12:15:54.801Z,12.01
2023-01-07T12:21:38.595Z,11.41
2023-01-07T12:26:50.700Z,11.23
2023-01-07T12:32:11.287Z,11.48
2023-01-07T12:37:32.321Z,10.98
2023-01-07T12:42:43.728Z,10.85
2023-01-07T12:47:53.611Z,11.35
2023-01-07T12:53:07.072Z,11.53
2023-01-07T12:58:21.746Z,11.74
2023-01-07T13:03:35.576Z,11.87
2023-01-07T13:08:46.952Z,12.26
2023-01-07T13:13:55.586Z,12.90
2023-01-07T13:19:00.476Z,13.54
2023-01-07T13:24:54.970Z,13.64
2023-01-07T13:30:08.878Z,12.73
2023-01-07T13:35:27.068Z,12.51
2023-01-07T13:40:56.989Z,12.23
2023-01-07T13:46:07.898Z,11.97
2023-01-07T13:51:13.629Z,11.63
2023-01-07T13:56:47.127Z,11.64
2023-01-07T14:02:20.470Z,11.26
2023-01-07T14:07:26.514Z,11.05
2023-01-07T14:13:11.084Z,11.17
2023-01-07T14:18:46.219Z,10.86
2023-01-07T14:24:04.885Z,10.48
2023-01-07T14:29:34.076Z,10.30
2023-01-07T14:34:40.063Z,10.38
2023-01-07T14:39:46.861Z,10.27
2023-01-07T14:44:55.072Z,10.34
2023-01-07T14:50:15.096Z,10.10
2023-01-07T14:55:41.187Z,9.73
2023-01-07T15:01:18.681Z,9.70
2023-01-07T15:06:29.207Z,9.60
2023-01-07T15:11:48.067Z,9.74
2023-01-07T15:16:57.051Z,9.93
2023-01-07T15:22:11.473Z,9.94
2023-01-07T15:27:24.502Z,9.86
2023-01-07T15:32:43.650Z,9.55
2023-01-07T15:37:52.354Z,9.51
2023-01-07T15:43:00.733Z,9.36
2023-01-07T15:48:15.841Z,9.27
2023-01-07T15:53:23.478Z,9.08
2023-01-07T15:58:38.280Z,8.95
2023-01-07T16:03:46.871Z,8.99
2023-01-07T16:08:51.881Z,8.89
2023-01-07T16:14:01.400Z,8.87
2023-01-07T16:19:09.097Z,8.85
2023-01-07T16:24:18.732Z,8.72
2023-01-07T16:29:27.905Z,8.70
2023-01-07T16:34:56.059Z,8.47
2023-01-07T16:40:01.623Z,8.33
2023-01-07T16:45:10.932Z,8.13
2023-01-07T16:50:40.880Z,8.37
2023-01-07T16:55:50.702Z,8.42
2023-01-07T17:00:58.288Z,8.22
2023-01-07T17:06:10.115Z,8.32
2023-01-07T17:11:24.022Z,8.29
2023-01-07T17:16:33.881Z,8.22
2023-01-07T17:21:49.843Z,8.15
2023-01-07T17:26:54.824Z,8.03
2023-01-07T17:32:00.130Z,7.96
2023-01-07T17:37:07.738Z,8.12
2023-01-07T17:42:35.955Z,8.14
2023-01-07T17:47:41.138Z,8.04
2023-01-07T17:52:50.812Z,7.93
2023-01-07T17:57:58.710Z,8.03
2023-01-07T18:03:04.004Z,7.99
2023-01-07T18:08:11.580Z,7.90
2023-01-07T18:13:16.710Z,7.82
2023-01-07T18:18:21.903Z,7.85
2023-01-07T18:23:29.548Z,7.88
2023-01-07T18:28:34.506Z,7.71
2023-01-07T18:33:42.958Z,7.62
2023-01-07T18:38:53.317Z,7.49
2023-01-07T18:43:58.607Z,7.35
2023-01-07T18:49:03.621Z,7.46
2023-01-07T18:54:11.343Z,7.49
2023-01-07T18:59:17.005Z,7.42
2023-01-07T19:04:22.679Z,7.58
2023-01-07T19:09:31.061Z,7.78
2023-01-07T19:14:36.179Z,7.58
2023-01-07T19:19:48.461Z,7.27
2023-01-07T19:24:56.924Z,7.14
2023-01-07T19:30:05.191Z,7.12
2023-01-07T19:35:12.216Z,6.97
2023-01-07T19:40:20.047Z,7.14
2023-01-07T19:45:27.192Z,7.29
2023-01-07T19:50:33.377Z,6.74
2023-01-07T19:55:47.938Z,6.84
2023-01-07T20:00:53.923Z,6.94
2023-01-07T20:06:06.861Z,6.17
2023-01-07T20:11:15.562Z,6.03
2023-01-07T20:16:24.570Z,6.26
2023-01-07T20:21:30.123Z,6.09
2023-01-07T20:26:41.866Z,5.77
2023-01-07T20:31:50.028Z,5.33
2023-01-07T20:36:55.373Z,5.55
2023-01-07T20:42:05.681Z,5.93
2023-01-07T20:47:10.739Z,5.63
2023-01-07T20:52:16.209Z,5.80
2023-01-07T20:57:26.560Z,5.92
2023-01-07T21:02:36.159Z,6.16
2023-01-07T21:07:43.755Z,6.12
2023-01-07T21:12:51.693Z,6.66
2023-01-07T21:17:57.333Z,6.83
2023-01-07T21:23:02.696Z,6.78
2023-01-07T21:28:10.373Z,6.43
2023-01-07T21:33:15.784Z,6.55
2023-01-07T21:38:22.003Z,6.47
2023-01-07T21:43:33.029Z,6.45
2023-01-07T21:48:39.769Z,6.46
2023-01-07T21:53:47.616Z,6.49
2023-01-07T21:58:55.724Z,6.47
2023-01-07T22:04:01.597Z,6.42
2023-01-07T22:09:10.750Z,6.33
2023-01-07T22:14:24.477Z,6.04
2023-01-07T22:19:29.602Z,6.21
2023-01-07T22:24:37.388Z,6.17
2023-01-07T22:29:44.992Z,6.18
2023-01-07T22:34:49.860Z,6.24
2023-01-07T22:39:58.566Z,6.20
2023-01-07T22:45:13.447Z,6.17
2023-01-07T22:50:19.195Z,6.12
2023-01-07T22:55:24.300Z,6.08
2023-01-07T23:00:45.088Z,5.94
2023-01-07T23:05:50.097Z,5.78
2023-01-07T23:10:55.331Z,5.76
2023-01-07T23:16:04.171Z,5.89
2023-01-07T23:21:09.628Z,6.02
2023-01-07T23:26:15.954Z,6.08
2023-01-07T23:31:23.653Z,6.17
2023-01-07T23:36:29.050Z,6.18
2023-01-07T23:41:35.025Z,6.14
2023-01-07T23:46:42.525Z,6.14
2023-01-07T23:51:47.469Z,6.09
2023-01-07T23:56:52.737Z,6.08
